Au Gres, Michigan
Current Conditions -  °F | °C
As of 7:54 PM on Thursday 30 Oct 2014 (Local Time) from KOSC Reporting Station
Drizzle Drizzle  
Wind Chill: 43°   Ceiling: 2700
Heat Index: 43°   Visibility: 10mi
Dew Point: 42°   Wind: 0mph
Humidity: 97%   Direction: NA
Pressure: 30.01"   Gusts: NA
Location:  44.05°N, 83.7°W
Report Text: KOSC 302354Z AUTO 00000KT 10SM -DZ SCT011 BKN027 OVC037 06/05 A3001 RMK AO2 P0002 T00600056
Loading
Personal Weather Stations






























Interactive Weather Map
Tropical Storm Tracking
New forecast layout! Learn more

10-Day Weather Forecast

Advertisements
Track Severe Weather on mobile